WFLO2: Webbers Falls Lock & Dam & Reservoir (L&D 16)

Data processed at Sat Aug 08 2020 23:31


All information presented herein is the property of the government of the United States of America and may be revised or deleted at any time without prior notice.
Dissemination of this information without the expressed written consent of the Public Affairs Office, Tulsa District U.S. Army Corps of Engineers is strictly prohibited.
These data are gathered electronically and, as presented, have not undergone any form of quality control. These data are not guaranteed to be valid or correct.
Go to home page.
Go to station list.
Go to home page.

Upstream stations:

Downstream station:
Previous Day
Next Day
Current Day
    
SHEF ID:       WFLO2     Webbers Falls LD16
STATION TYPE:  NAVIGATION LOCK
Navigation Pool:  Bottom =   487.00, Top =   490.00

               PRECIP ELEVATION   STORAGE   TW-ELEV    INFLOW   RELEASE  AIR-TEMP  WIND-DIRWIND-SPEED REL-HUMID SOLAR-RAD   VOLTAGE  BAT-LOAD
                   in        ft     ac-ft        ft       cfs       cfs         F       deg       mph         %      W/m2      volt      volt
              Ccp-Rev   Ccp-Rev   Ccp-Rev   Ccp-Rev  Rev-Regi  Rev-Regi   Ccp-Rev   Ccp-Rev   Ccp-Rev   Ccp-Rev   Ccp-Rev   Ccp-Rev   Ccp-Rev
(US/Central)
08/08 00:00      0.00    490.18    172283    460.65     24946     28600     73.74    147.70      9.80     98.98      0.00     13.22     12.97
08/08 01:00      0.00    490.28    173496    460.19     26315     24100     73.33    150.80     10.10     99.30      0.00     13.22     12.97
08/08 02:00      0.00    490.29    173618    460.19     26610     19800     73.02    150.90     10.00     99.40      0.00     13.22     12.97
08/08 03:00      0.00    490.35    174345    460.27     28079     20200     72.90    154.30      8.50     99.52      0.00     13.22     12.97
08/08 04:00      0.00    490.36    174467    460.33     25164     19800     72.39    156.40     10.30     99.58      0.00     13.21     12.97
08/08 05:00      0.00    490.43    175316    460.28     26632     19800     71.83    152.10     10.10     99.59      0.00     13.22     12.97
08/08 06:00      0.00    490.46    175680    460.26     25511     19800     70.92    149.90      8.80     99.57      0.00     13.22     12.97
08/08 07:00      0.00    490.52    176408    460.22     26392     19800     71.71    151.80      8.80     99.44      0.10     13.22     12.97
08/08 08:00      0.00    490.55    176771    460.22     25511     19000     72.23    149.50      7.70     99.22     68.90     13.22     12.97
08/08 09:00      0.00    490.59    177257    460.26     24043     19800     73.96    155.70     11.10     95.29    200.90     13.22     12.97
08/08 10:00      0.00    490.63    177742    460.27     24236     19800     75.99    155.40     11.10     88.54    315.60     13.22     12.81
08/08 11:00      0.00    490.61    177499    460.29     23808     19800     78.31    152.20     12.90     83.28    663.20     13.22     12.97
08/08 12:00      0.00    490.65    177984    460.40     23513     23700     81.68    154.50     12.40     75.75    788.10     13.22     12.97
08/08 13:00      0.00    490.60    177378    460.64     23805     28600     85.01    166.40      9.70     64.96    858.70     13.22     12.97
08/08 14:00      0.00    490.57    177014    460.77     25565     28600     86.72    169.60      9.30     59.77    820.60     13.22     12.97
08/08 15:00      0.00    490.56    176893    460.57     23903     28600     88.30    170.50      7.20     56.56    806.10     13.22     12.97
08/08 16:00      0.00    490.54    176650    460.62     24704     28600     89.19    169.30      6.70     55.39    761.90     13.22     12.97
08/08 17:00      0.00    490.49    176044    460.68     24330     28600     90.50    181.20      4.00     52.68    638.80     13.22     12.97
08/08 18:00      0.00    490.47    175801    460.65     23156     28200     90.75    182.30      4.40     50.52    448.50     13.22     12.97
08/08 19:00      0.00    490.43    175316    460.67     23450     28200     89.49    179.80      4.30     52.79    227.90     13.22     12.97
08/08 20:00      0.00    490.38    174709    460.71     23450     28600     88.07    161.70      0.40     61.36     54.20     13.22     12.97
08/08 21:00      0.00    490.37    174588    460.79     24997     28600     80.89    146.50      1.60     81.64      0.00     13.22     12.97
08/08 22:00      0.00    490.30    173739    460.73      ----      ----     79.09    154.10      2.60     84.10      0.00     13.22     12.97
08/08 23:00      ----      ----      ----      ----      ----      ----      ----      ----      ----      ----      ----      ----      ----